Aérodrome :







RETROUVEZ-NOUS SUR...

 
LOGIN :

S'inscrire | Disclaimer

   EN    FR    IT 

 









Légende :    VFR   VFR Marginal   IFR   IFR Intensif   IFR Très Intensif
Visi : 
Plafond : 
>= 8 km
>= 3000ft
5 à 8 km
1000 à 3000 ft
1500m à 5 km
500 à 1000 ft
800 à 1500m
200 à 500 ft
< 800m
< 200 ft
Symboles :   Orages  Brouillard  Fortes neiges  Fortes précipitations  Vent > 20 kt






- Altitude de l'aérodrome : 232 ft
- Code IATA : YQM


CYQM - Greater Moncton International

DERNIER METAR :
  • 071200Z 25009G17KT 15SM FEW130 SCT250 21/14 A3009 RMK AC1CI3 SLP190 DENSITY ALT 800FT

METARs EXPIRÉS :
  • 071100Z 24010KT 15SM FEW250 18/13 A3007 RMK CI2 SLP186 DENSITY ALT 500FT
  • 071000Z 23012KT 15SM FEW250 16/13 A3006 RMK CI2 SLP182 DENSITY ALT 300FT

TAF TAF CYQM
Valide du 07 à 12h jusqu'au 08 à 12h UTC


071138Z 0712/0812 24010KT P6SM FEW250
BECMG 0712/0714 27012KT
FM072000 27010KT P6SM SCT060
FM080200 22007KT P6SM FEW250 RMK NXT FCST BY 071800Z
FIR CZQM / Amérique du Nord



MET'MAP, la Météo Aéronautique d'un coup d'oeil ! - Copyright ORBIFLY Décembre 2007 - Disclaimer

ORBIFLY MET'MAP TEAM :

Programmation & Développement : Alexandra Zaïnal
Sur une idée originale de : Baudouin d'Aumeries
Assistance à la programmation : Marc-Olivier Méhu
Soutien technique & logistique : Manuel Goepfert

Contact : metmap@orbifly.com




SOURCES & CREDITS :

   NOAA